createdAt,value
2023-08-22T00:02:28.631Z,18.10
2023-08-22T00:04:56.535Z,18.10
2023-08-22T00:07:25.675Z,18.20
2023-08-22T00:09:53.420Z,18.20
2023-08-22T00:12:21.273Z,18.20
2023-08-22T00:14:49.315Z,18.20
2023-08-22T00:17:17.073Z,18.20
2023-08-22T00:19:46.255Z,18.20
2023-08-22T00:22:14.024Z,18.30
2023-08-22T00:24:43.099Z,18.30
2023-08-22T00:27:12.885Z,18.30
2023-08-22T00:29:40.688Z,18.40
2023-08-22T00:32:08.472Z,18.30
2023-08-22T00:34:36.333Z,18.30
2023-08-22T00:37:04.284Z,18.30
2023-08-22T00:39:32.048Z,18.30
2023-08-22T00:42:01.130Z,18.40
2023-08-22T00:44:28.898Z,18.50
2023-08-22T00:46:56.840Z,18.50
2023-08-22T00:49:24.941Z,18.60
2023-08-22T00:51:53.010Z,18.70
2023-08-22T00:54:21.850Z,18.80
2023-08-22T00:56:50.868Z,18.80
2023-08-22T00:59:21.076Z,18.80
2023-08-22T01:01:48.884Z,18.90
2023-08-22T01:04:16.626Z,18.90
2023-08-22T01:06:55.702Z,18.90
2023-08-22T01:09:29.872Z,18.80
2023-08-22T01:12:03.626Z,18.80
2023-08-22T01:14:36.575Z,18.80
2023-08-22T01:17:05.682Z,18.90
2023-08-22T01:19:33.495Z,18.90
2023-08-22T01:22:02.613Z,18.90
2023-08-22T01:24:30.363Z,18.90
2023-08-22T01:26:58.254Z,18.90
2023-08-22T01:29:36.176Z,18.90
2023-08-22T01:32:11.790Z,18.90
2023-08-22T01:34:41.883Z,18.90
2023-08-22T01:37:13.620Z,18.80
2023-08-22T01:39:43.598Z,18.80
2023-08-22T01:42:12.188Z,18.70
2023-08-22T01:44:39.960Z,18.80
2023-08-22T01:47:08.016Z,18.80
2023-08-22T01:49:38.555Z,18.90
2023-08-22T01:52:06.619Z,18.90
2023-08-22T01:54:39.385Z,19.00
2023-08-22T01:57:07.237Z,18.90
2023-08-22T01:59:35.010Z,19.00
2023-08-22T02:02:03.016Z,19.00
2023-08-22T02:04:30.754Z,18.90
2023-08-22T02:06:58.788Z,18.90
2023-08-22T02:09:26.664Z,18.90
2023-08-22T02:11:55.802Z,18.90
2023-08-22T02:14:23.546Z,18.80
2023-08-22T02:16:51.342Z,18.70
2023-08-22T02:19:19.076Z,18.80
2023-08-22T02:21:46.821Z,18.80
2023-08-22T02:24:14.562Z,18.80
2023-08-22T02:26:44.126Z,18.80
2023-08-22T02:29:13.224Z,18.70
2023-08-22T02:31:41.057Z,18.70
2023-08-22T02:34:08.880Z,18.70
2023-08-22T02:36:36.963Z,18.70
2023-08-22T02:39:05.460Z,18.70
2023-08-22T02:41:33.207Z,18.60
2023-08-22T02:44:00.959Z,18.50
2023-08-22T02:46:30.421Z,18.40
2023-08-22T02:48:58.509Z,18.50
2023-08-22T02:51:26.357Z,18.40
2023-08-22T02:53:54.123Z,18.40
2023-08-22T02:56:21.879Z,18.50
2023-08-22T02:58:49.652Z,18.40
2023-08-22T03:01:17.968Z,18.30
2023-08-22T03:03:51.481Z,18.30
2023-08-22T03:06:19.358Z,18.30
2023-08-22T03:08:47.098Z,18.30
2023-08-22T03:11:14.858Z,18.40
2023-08-22T03:13:42.678Z,18.40
2023-08-22T03:16:10.418Z,18.40
2023-08-22T03:18:38.167Z,18.30
2023-08-22T03:21:07.300Z,18.20
2023-08-22T03:23:35.057Z,18.20
2023-08-22T03:26:04.046Z,18.20
2023-08-22T03:28:34.447Z,18.10
2023-08-22T03:31:04.842Z,18.10
2023-08-22T03:33:33.250Z,18.00
2023-08-22T03:36:01.484Z,18.00
2023-08-22T03:38:30.621Z,18.00
2023-08-22T03:40:58.805Z,18.10
2023-08-22T03:43:26.537Z,18.10
2023-08-22T03:45:54.332Z,18.00
2023-08-22T03:48:22.107Z,18.00
2023-08-22T03:50:49.934Z,17.90
2023-08-22T03:53:17.918Z,18.00
2023-08-22T03:55:47.248Z,18.00
2023-08-22T03:58:15.067Z,17.90
2023-08-22T04:00:42.905Z,17.90
2023-08-22T04:03:10.754Z,17.90
2023-08-22T04:05:38.569Z,17.90
2023-08-22T04:08:07.265Z,17.90
2023-08-22T04:10:35.029Z,17.90
2023-08-22T04:13:04.304Z,18.00
2023-08-22T04:15:32.071Z,18.00
2023-08-22T04:17:59.858Z,18.10
2023-08-22T04:20:27.645Z,18.10
2023-08-22T04:22:55.414Z,18.20
2023-08-22T04:25:24.595Z,18.20
2023-08-22T04:27:53.965Z,18.10
2023-08-22T04:30:23.588Z,18.00
2023-08-22T04:32:51.500Z,18.10
2023-08-22T04:35:19.583Z,18.10
2023-08-22T04:37:47.331Z,18.30
2023-08-22T04:40:15.076Z,18.30
2023-08-22T04:42:42.956Z,18.40
2023-08-22T04:45:11.296Z,18.50
2023-08-22T04:47:40.682Z,18.50
2023-08-22T04:50:09.701Z,18.50
2023-08-22T04:52:37.420Z,18.50
2023-08-22T04:55:06.140Z,18.50
2023-08-22T04:57:34.990Z,18.40
2023-08-22T05:00:02.777Z,18.60
2023-08-22T05:02:30.667Z,18.50
2023-08-22T05:04:59.781Z,18.50
2023-08-22T05:07:27.502Z,18.50
2023-08-22T05:09:55.257Z,18.60
2023-08-22T05:12:23.305Z,18.60
2023-08-22T05:14:51.183Z,18.60
2023-08-22T05:19:47.614Z,18.70
2023-08-22T05:22:16.717Z,18.80
2023-08-22T05:24:44.494Z,18.90
2023-08-22T05:27:12.341Z,18.90
2023-08-22T05:29:40.098Z,19.00
2023-08-22T05:32:08.442Z,19.10
2023-08-22T05:34:37.423Z,19.30
2023-08-22T05:37:05.260Z,19.40
2023-08-22T05:39:34.345Z,19.60
2023-08-22T05:42:02.105Z,19.70
2023-08-22T05:44:30.444Z,19.80
2023-08-22T05:46:58.247Z,19.90
2023-08-22T05:49:26.114Z,19.90
2023-08-22T05:52:03.309Z,19.90
2023-08-22T05:54:31.240Z,20.00
2023-08-22T05:57:00.526Z,20.10
2023-08-22T05:59:28.373Z,20.10
2023-08-22T06:01:58.545Z,20.20
2023-08-22T06:04:27.108Z,20.20
2023-08-22T06:06:54.868Z,20.30
2023-08-22T06:09:22.973Z,20.40
2023-08-22T06:11:50.722Z,20.60
2023-08-22T06:14:19.890Z,20.60
2023-08-22T06:16:47.634Z,20.60
2023-08-22T06:19:15.379Z,20.60
2023-08-22T06:21:43.192Z,20.50
2023-08-22T06:24:10.949Z,20.50
2023-08-22T06:26:38.677Z,20.60
2023-08-22T06:29:06.432Z,20.80
2023-08-22T06:31:35.526Z,20.90
2023-08-22T06:34:03.849Z,21.00
2023-08-22T06:36:31.618Z,21.10
2023-08-22T06:38:59.361Z,21.20
2023-08-22T06:41:27.099Z,21.30
2023-08-22T06:43:54.844Z,21.50
2023-08-22T06:46:23.243Z,21.60
2023-08-22T06:48:52.408Z,21.70
2023-08-22T06:51:20.185Z,21.70
2023-08-22T06:53:48.935Z,21.80
2023-08-22T06:56:16.955Z,21.80
2023-08-22T06:58:44.743Z,21.80
2023-08-22T07:01:12.520Z,21.70
2023-08-22T07:03:40.486Z,21.60
2023-08-22T07:06:09.696Z,21.70
2023-08-22T07:08:37.435Z,21.60
2023-08-22T07:11:06.069Z,21.70
2023-08-22T07:13:35.076Z,21.90
2023-08-22T07:16:02.900Z,22.10
2023-08-22T07:18:30.770Z,22.20
2023-08-22T07:21:04.223Z,22.30
2023-08-22T07:23:33.403Z,22.30
2023-08-22T07:26:01.904Z,22.40
2023-08-22T07:28:29.691Z,22.70
2023-08-22T07:30:57.501Z,22.90
2023-08-22T07:33:25.314Z,23.10
2023-08-22T07:35:53.347Z,23.20
2023-08-22T07:38:21.271Z,23.20
2023-08-22T07:40:50.322Z,23.40
2023-08-22T07:43:18.082Z,23.40
2023-08-22T07:45:46.375Z,23.40
2023-08-22T07:48:14.333Z,23.50
2023-08-22T07:50:42.082Z,23.40
2023-08-22T07:53:09.849Z,23.40
2023-08-22T07:55:37.601Z,23.50
2023-08-22T07:58:07.036Z,23.40
2023-08-22T08:00:35.219Z,23.50
2023-08-22T08:03:05.023Z,23.60
2023-08-22T08:05:34.309Z,23.80
2023-08-22T08:08:02.185Z,24.00
2023-08-22T08:10:29.969Z,24.30
2023-08-22T08:12:57.735Z,24.50
2023-08-22T08:15:26.938Z,24.70
2023-08-22T08:17:54.742Z,25.00
2023-08-22T08:20:23.223Z,25.10
2023-08-22T08:22:50.958Z,25.60
2023-08-22T08:25:18.861Z,25.80
2023-08-22T08:27:49.278Z,25.90
2023-08-22T08:30:18.850Z,26.00
2023-08-22T08:32:48.186Z,26.00
2023-08-22T08:35:16.184Z,26.00
2023-08-22T08:37:44.200Z,26.00
2023-08-22T08:40:12.686Z,26.10
2023-08-22T08:42:40.605Z,26.40
2023-08-22T08:45:09.173Z,26.90
2023-08-22T08:47:38.437Z,27.10
2023-08-22T08:50:10.316Z,27.60
2023-08-22T08:52:38.343Z,28.40
2023-08-22T08:55:06.912Z,28.90
2023-08-22T08:57:34.819Z,29.70
2023-08-22T09:00:03.087Z,31.70
2023-08-22T09:02:32.334Z,33.50
2023-08-22T09:05:00.229Z,33.50
2023-08-22T09:07:29.734Z,35.10
2023-08-22T09:09:58.448Z,37.40
2023-08-22T09:12:33.918Z,39.70
2023-08-22T09:15:01.882Z,40.50
2023-08-22T09:17:31.185Z,40.00
2023-08-22T09:19:59.029Z,38.70
2023-08-22T09:22:32.140Z,37.30
2023-08-22T09:25:00.198Z,35.80
2023-08-22T09:27:28.610Z,34.50
2023-08-22T09:30:06.186Z,33.10
2023-08-22T09:32:34.555Z,32.30
2023-08-22T09:35:03.961Z,31.40
2023-08-22T09:37:33.876Z,30.80
2023-08-22T09:40:02.051Z,30.20
2023-08-22T09:42:31.250Z,29.80
2023-08-22T09:44:59.699Z,30.00
2023-08-22T09:47:30.933Z,29.70
2023-08-22T09:50:02.041Z,29.60
2023-08-22T09:52:30.838Z,29.50
2023-08-22T09:55:00.508Z,29.90
2023-08-22T09:57:28.901Z,32.00
2023-08-22T09:59:57.373Z,33.00
2023-08-22T10:02:25.956Z,33.10
2023-08-22T10:04:54.790Z,33.60
2023-08-22T10:07:24.596Z,34.70
2023-08-22T10:09:52.480Z,34.70
2023-08-22T10:12:24.215Z,36.00
2023-08-22T10:14:57.922Z,37.30
2023-08-22T10:17:28.191Z,37.50
2023-08-22T10:20:02.139Z,38.20
2023-08-22T10:22:33.907Z,39.60
2023-08-22T10:25:06.250Z,40.40
2023-08-22T10:27:39.226Z,40.90
2023-08-22T10:30:20.765Z,40.50
2023-08-22T10:33:14.298Z,39.10
2023-08-22T10:36:03.997Z,38.50
2023-08-22T10:38:49.285Z,36.90
2023-08-22T10:41:17.139Z,36.60
2023-08-22T10:43:46.842Z,36.10
2023-08-22T10:46:15.044Z,34.90
2023-08-22T10:48:43.059Z,34.20
2023-08-22T10:51:10.775Z,33.80
2023-08-22T10:53:45.777Z,33.40
2023-08-22T10:56:25.090Z,33.20
2023-08-22T10:59:02.058Z,32.70
2023-08-22T11:01:31.505Z,32.20
2023-08-22T11:04:01.000Z,32.30
2023-08-22T11:06:28.751Z,32.90
2023-08-22T11:08:56.523Z,32.50
2023-08-22T11:11:24.339Z,32.50
2023-08-22T11:13:52.117Z,32.70
2023-08-22T11:16:21.468Z,32.70
2023-08-22T11:18:50.364Z,32.10
2023-08-22T11:21:18.521Z,31.70
2023-08-22T11:23:46.504Z,31.50
2023-08-22T11:26:14.526Z,31.40
2023-08-22T11:28:43.645Z,31.40
2023-08-22T11:31:16.383Z,31.10
2023-08-22T11:33:50.974Z,30.80
2023-08-22T11:36:22.753Z,30.80
2023-08-22T11:38:53.259Z,30.60
2023-08-22T11:41:22.436Z,30.40
2023-08-22T11:43:53.809Z,30.30
2023-08-22T11:46:23.403Z,30.30
2023-08-22T11:48:53.733Z,30.50
2023-08-22T11:51:22.595Z,30.30
2023-08-22T11:53:50.652Z,29.90
2023-08-22T11:56:20.234Z,29.60
2023-08-22T11:58:54.749Z,29.60
2023-08-22T12:01:24.907Z,29.60
2023-08-22T12:03:59.951Z,29.50
2023-08-22T12:06:27.802Z,29.30
2023-08-22T12:08:57.042Z,29.30
2023-08-22T12:11:26.202Z,29.20
2023-08-22T12:13:54.196Z,29.20
2023-08-22T12:16:22.062Z,29.40
2023-08-22T12:18:49.988Z,29.80
2023-08-22T12:21:19.126Z,29.80
2023-08-22T12:23:46.939Z,29.80
2023-08-22T12:26:14.694Z,29.70
2023-08-22T12:28:42.473Z,29.40
2023-08-22T12:31:10.261Z,29.10
2023-08-22T12:33:37.987Z,28.90
2023-08-22T12:36:06.107Z,28.40
2023-08-22T12:38:35.163Z,28.40
2023-08-22T12:41:03.542Z,28.50
2023-08-22T12:43:31.269Z,28.60
2023-08-22T12:45:59.053Z,28.60
2023-08-22T12:48:26.870Z,28.60
2023-08-22T12:50:54.651Z,28.60
2023-08-22T12:53:22.402Z,28.50
2023-08-22T12:55:51.741Z,28.60
2023-08-22T12:58:19.474Z,28.80
2023-08-22T13:00:47.205Z,28.80
2023-08-22T13:03:15.068Z,28.90
2023-08-22T13:05:43.024Z,29.00
2023-08-22T13:08:10.774Z,28.90
2023-08-22T13:10:39.463Z,28.90
2023-08-22T13:13:08.620Z,29.00
2023-08-22T13:15:36.327Z,28.90
2023-08-22T13:18:04.364Z,29.00
2023-08-22T13:20:32.250Z,29.10
2023-08-22T13:23:00.019Z,29.00
2023-08-22T13:25:27.761Z,28.70
2023-08-22T13:27:55.523Z,28.70
2023-08-22T13:30:24.832Z,28.60
2023-08-22T13:32:52.644Z,28.50
2023-08-22T13:35:20.454Z,28.40
2023-08-22T13:37:48.949Z,28.40
2023-08-22T13:40:16.871Z,28.50
2023-08-22T13:42:45.071Z,28.40
2023-08-22T13:45:12.941Z,28.20
2023-08-22T13:47:42.214Z,28.00
2023-08-22T13:50:10.907Z,27.80
2023-08-22T13:52:38.638Z,27.80
2023-08-22T13:55:07.382Z,27.70
2023-08-22T13:57:35.261Z,27.60
2023-08-22T14:00:03.189Z,27.70
2023-08-22T14:02:30.987Z,27.60
2023-08-22T14:05:00.351Z,27.60
2023-08-22T14:07:28.128Z,27.50
2023-08-22T14:09:56.070Z,27.40
2023-08-22T14:12:23.835Z,27.30
2023-08-22T14:14:51.617Z,27.20
2023-08-22T14:17:19.407Z,27.20
2023-08-22T14:19:47.165Z,27.40
2023-08-22T14:22:16.386Z,27.60
2023-08-22T14:24:44.337Z,27.60
2023-08-22T14:27:12.136Z,27.60
2023-08-22T14:29:40.021Z,27.60
2023-08-22T14:32:07.951Z,27.50
2023-08-22T14:34:35.746Z,27.50
2023-08-22T14:37:16.699Z,27.40
2023-08-22T14:39:52.881Z,27.30
2023-08-22T14:42:20.710Z,27.10
2023-08-22T14:44:48.546Z,27.00
2023-08-22T14:47:16.959Z,26.90
2023-08-22T14:49:45.258Z,26.80
2023-08-22T14:52:13.253Z,26.70
2023-08-22T14:54:41.033Z,26.60
2023-08-22T14:57:12.817Z,26.40
2023-08-22T14:59:40.910Z,26.40
2023-08-22T15:02:08.804Z,26.30
2023-08-22T15:04:36.671Z,26.20
2023-08-22T15:07:04.656Z,26.10
2023-08-22T15:09:32.439Z,26.00
2023-08-22T15:12:00.248Z,25.90
2023-08-22T15:14:29.458Z,25.80
2023-08-22T15:16:57.296Z,25.70
2023-08-22T15:19:25.047Z,25.60
2023-08-22T15:21:52.805Z,25.50
2023-08-22T15:24:20.626Z,25.40
2023-08-22T15:26:48.370Z,25.40
2023-08-22T15:29:16.229Z,25.40
2023-08-22T15:31:45.847Z,25.40
2023-08-22T15:34:14.754Z,25.40
2023-08-22T15:36:43.436Z,25.30
2023-08-22T15:39:11.268Z,25.20
2023-08-22T15:41:39.025Z,25.10
2023-08-22T15:44:06.802Z,25.10
2023-08-22T15:46:34.638Z,25.10
2023-08-22T15:49:03.789Z,25.00
2023-08-22T15:51:31.566Z,25.10
2023-08-22T15:53:59.335Z,25.00
2023-08-22T15:56:29.259Z,25.00
2023-08-22T15:58:57.291Z,25.00
2023-08-22T16:01:25.161Z,25.00
2023-08-22T16:03:52.996Z,24.90
2023-08-22T16:06:22.100Z,24.90
2023-08-22T16:08:49.911Z,24.90
2023-08-22T16:11:17.789Z,24.80
2023-08-22T16:13:45.526Z,24.70
2023-08-22T16:16:13.330Z,24.80
2023-08-22T16:18:41.670Z,24.70
2023-08-22T16:21:09.925Z,24.70
2023-08-22T16:23:39.063Z,24.60
2023-08-22T16:26:07.618Z,24.60
2023-08-22T16:28:35.446Z,24.60
2023-08-22T16:31:03.311Z,24.60
2023-08-22T16:33:31.174Z,24.50
2023-08-22T16:35:59.047Z,24.40
2023-08-22T16:38:26.887Z,24.30
2023-08-22T16:40:56.207Z,24.20
2023-08-22T16:43:25.097Z,24.20
2023-08-22T16:45:54.046Z,24.00
2023-08-22T16:48:21.958Z,24.00
2023-08-22T16:50:50.513Z,23.90
2023-08-22T16:53:18.326Z,23.80
2023-08-22T16:55:46.969Z,23.70
2023-08-22T16:58:17.600Z,23.70
2023-08-22T17:00:45.351Z,23.80
2023-08-22T17:03:13.154Z,23.60
2023-08-22T17:05:45.780Z,23.60
2023-08-22T17:08:14.182Z,23.50
2023-08-22T17:10:41.934Z,23.50
2023-08-22T17:13:09.822Z,23.50
2023-08-22T17:15:39.385Z,23.50
2023-08-22T17:18:08.237Z,23.60
2023-08-22T17:20:36.040Z,23.60
2023-08-22T17:23:03.793Z,23.60
2023-08-22T17:25:31.571Z,23.50
2023-08-22T17:27:59.949Z,23.40
2023-08-22T17:30:27.739Z,23.40
2023-08-22T17:32:56.861Z,23.40
2023-08-22T17:35:24.805Z,23.30
2023-08-22T17:37:52.574Z,23.10
2023-08-22T17:40:20.361Z,23.00
2023-08-22T17:42:48.123Z,22.90
2023-08-22T17:45:16.287Z,22.90
2023-08-22T17:47:44.544Z,22.90
2023-08-22T17:50:13.997Z,22.90
2023-08-22T17:52:41.850Z,22.90
2023-08-22T17:55:10.343Z,22.80
2023-08-22T17:57:38.082Z,22.70
2023-08-22T18:00:07.311Z,22.70
2023-08-22T18:02:35.140Z,22.70
2023-08-22T18:05:03.885Z,22.60
2023-08-22T18:07:33.029Z,22.60
2023-08-22T18:10:00.762Z,22.50
2023-08-22T18:12:28.935Z,22.40
2023-08-22T18:14:56.757Z,22.30
2023-08-22T18:17:24.616Z,22.10
2023-08-22T18:19:52.435Z,22.00
2023-08-22T18:22:20.189Z,22.00
2023-08-22T18:24:49.239Z,22.00
2023-08-22T18:27:16.979Z,21.90
2023-08-22T18:29:44.818Z,21.90
2023-08-22T18:32:12.800Z,21.70
2023-08-22T18:34:41.714Z,21.50
2023-08-22T18:37:11.119Z,21.50
2023-08-22T18:39:38.955Z,21.40
2023-08-22T18:42:08.291Z,21.30
2023-08-22T18:44:36.107Z,21.20
2023-08-22T18:47:04.347Z,21.30
2023-08-22T18:49:32.097Z,21.40
2023-08-22T18:51:59.812Z,21.30
2023-08-22T18:54:27.569Z,21.20
2023-08-22T18:56:55.380Z,21.20
2023-08-22T18:59:24.500Z,21.30
2023-08-22T19:01:52.261Z,21.30
2023-08-22T19:04:20.327Z,21.20
2023-08-22T19:06:48.022Z,21.00
2023-08-22T19:09:15.762Z,20.80
2023-08-22T19:11:43.519Z,20.80
2023-08-22T19:14:11.307Z,20.70
2023-08-22T19:16:40.377Z,20.50
2023-08-22T19:19:08.130Z,20.30
2023-08-22T19:21:35.898Z,20.20
2023-08-22T19:24:03.665Z,20.20
2023-08-22T19:26:31.533Z,20.10
2023-08-22T19:28:59.346Z,20.00
2023-08-22T19:31:27.292Z,19.90
2023-08-22T19:33:56.508Z,19.70
2023-08-22T19:36:24.652Z,19.70
2023-08-22T19:38:52.802Z,19.70
2023-08-22T19:41:20.760Z,19.60
2023-08-22T19:43:48.672Z,19.50
2023-08-22T19:46:16.525Z,19.40
2023-08-22T19:48:44.337Z,19.20
2023-08-22T19:51:13.535Z,19.10
2023-08-22T19:53:41.329Z,19.10
2023-08-22T19:56:09.084Z,19.00
2023-08-22T19:58:36.852Z,19.00
2023-08-22T20:01:04.626Z,19.00
2023-08-22T20:03:32.542Z,19.00
2023-08-22T20:06:01.398Z,19.00
2023-08-22T20:08:30.521Z,19.10
2023-08-22T20:10:58.405Z,19.10
2023-08-22T20:13:26.433Z,19.00
2023-08-22T20:15:54.360Z,19.00
2023-08-22T20:18:22.279Z,18.90
2023-08-22T20:20:50.808Z,18.90
2023-08-22T20:23:18.731Z,18.80
2023-08-22T20:25:47.962Z,18.90
2023-08-22T20:28:15.789Z,18.90
2023-08-22T20:30:44.905Z,18.90
2023-08-22T20:33:12.975Z,18.90
2023-08-22T20:35:40.785Z,18.70
2023-08-22T20:38:10.901Z,18.70
2023-08-22T20:40:41.066Z,18.60
2023-08-22T20:43:10.169Z,18.50
2023-08-22T20:45:38.051Z,18.40
2023-08-22T20:48:06.656Z,18.40
2023-08-22T20:50:34.562Z,18.30
2023-08-22T20:53:02.493Z,18.30
2023-08-22T20:55:30.273Z,18.20
2023-08-22T20:57:58.032Z,18.10
2023-08-22T21:00:27.251Z,18.00
2023-08-22T21:02:55.095Z,18.00
2023-08-22T21:05:23.041Z,17.90
2023-08-22T21:07:50.828Z,17.90
2023-08-22T21:10:18.720Z,17.90
2023-08-22T21:12:46.737Z,18.00
2023-08-22T21:15:14.674Z,17.90
2023-08-22T21:17:44.351Z,17.80
2023-08-22T21:20:13.490Z,17.70
2023-08-22T21:22:41.503Z,17.50
2023-08-22T21:25:10.953Z,17.50
2023-08-22T21:27:38.738Z,17.40
2023-08-22T21:30:07.807Z,17.20
2023-08-22T21:32:35.761Z,17.20
2023-08-22T21:35:05.479Z,17.20
2023-08-22T21:37:33.328Z,17.20
2023-08-22T21:40:01.096Z,17.20
2023-08-22T21:42:28.860Z,17.40
2023-08-22T21:44:56.630Z,17.40
2023-08-22T21:47:24.432Z,17.40
2023-08-22T21:49:55.607Z,17.30
2023-08-22T21:52:24.790Z,17.20
2023-08-22T21:54:52.646Z,17.20
2023-08-22T21:57:20.462Z,17.10
2023-08-22T21:59:48.209Z,17.10
2023-08-22T22:02:15.982Z,17.00
2023-08-22T22:04:43.765Z,16.90
2023-08-22T22:07:11.483Z,16.90
2023-08-22T22:09:40.672Z,16.80
2023-08-22T22:12:09.370Z,16.80
2023-08-22T22:14:37.262Z,16.70
2023-08-22T22:17:06.208Z,16.60
2023-08-22T22:19:34.161Z,16.50
2023-08-22T22:22:02.046Z,16.40
2023-08-22T22:24:29.796Z,16.30
2023-08-22T22:26:58.874Z,16.30
2023-08-22T22:29:26.670Z,16.40
2023-08-22T22:31:54.431Z,16.30
2023-08-22T22:34:23.908Z,16.30
2023-08-22T22:36:51.818Z,16.30
2023-08-22T22:39:19.586Z,16.20
2023-08-22T22:41:47.369Z,16.20
2023-08-22T22:44:16.490Z,16.30
2023-08-22T22:46:44.614Z,16.30
2023-08-22T22:49:12.374Z,16.20
2023-08-22T22:51:40.125Z,16.20
2023-08-22T22:54:07.870Z,16.10
2023-08-22T22:56:35.595Z,16.00
2023-08-22T22:59:04.110Z,16.00
2023-08-22T23:01:33.626Z,16.00
2023-08-22T23:04:01.369Z,16.10
2023-08-22T23:06:29.194Z,16.10
2023-08-22T23:08:56.950Z,16.10
2023-08-22T23:11:32.625Z,16.10
2023-08-22T23:14:12.497Z,16.10
2023-08-22T23:16:41.584Z,16.00
2023-08-22T23:19:09.350Z,16.00
2023-08-22T23:21:37.111Z,15.90
2023-08-22T23:24:05.310Z,15.80
2023-08-22T23:26:33.025Z,15.80
2023-08-22T23:29:00.745Z,15.90
2023-08-22T23:31:28.480Z,15.90
2023-08-22T23:33:57.710Z,15.90
2023-08-22T23:36:25.457Z,15.90
2023-08-22T23:38:53.221Z,16.00
2023-08-22T23:41:20.938Z,16.00
2023-08-22T23:43:49.354Z,15.90
2023-08-22T23:46:17.722Z,16.00
2023-08-22T23:48:45.515Z,15.90
2023-08-22T23:51:17.505Z,15.90
2023-08-22T23:53:45.620Z,15.90
2023-08-22T23:56:13.349Z,15.80
2023-08-22T23:58:41.115Z,15.80
